sensor_id;sensor_type;location;lat;lon;timestamp;temperature;humidity
10143;DHT22;5112;54.088;13.446;2024-01-30T00:04:01;4.10;99.90
10143;DHT22;5112;54.088;13.446;2024-01-30T00:14:04;4.00;99.90
10143;DHT22;5112;54.088;13.446;2024-01-30T00:24:06;3.80;99.90
10143;DHT22;5112;54.088;13.446;2024-01-30T00:34:09;3.60;99.90
10143;DHT22;5112;54.088;13.446;2024-01-30T00:44:11;3.70;99.90
10143;DHT22;5112;54.088;13.446;2024-01-30T00:54:14;3.70;99.90
10143;DHT22;5112;54.088;13.446;2024-01-30T01:04:15;3.50;99.90
10143;DHT22;5112;54.088;13.446;2024-01-30T01:14:19;3.50;99.90
10143;DHT22;5112;54.088;13.446;2024-01-30T01:24:20;3.60;99.90
10143;DHT22;5112;54.088;13.446;2024-01-30T01:34:24;3.40;99.90
10143;DHT22;5112;54.088;13.446;2024-01-30T01:44:26;3.10;99.90
10143;DHT22;5112;54.088;13.446;2024-01-30T01:54:29;2.90;99.90
10143;DHT22;5112;54.088;13.446;2024-01-30T02:04:31;2.70;99.90
10143;DHT22;5112;54.088;13.446;2024-01-30T02:14:44;2.60;99.90
10143;DHT22;5112;54.088;13.446;2024-01-30T02:24:47;2.70;99.90
10143;DHT22;5112;54.088;13.446;2024-01-30T02:34:48;2.80;99.90
10143;DHT22;5112;54.088;13.446;2024-01-30T02:44:51;2.70;99.90
10143;DHT22;5112;54.088;13.446;2024-01-30T02:54:53;2.90;99.90
10143;DHT22;5112;54.088;13.446;2024-01-30T03:04:56;2.90;99.90
10143;DHT22;5112;54.088;13.446;2024-01-30T03:14:57;3.10;99.90
10143;DHT22;5112;54.088;13.446;2024-01-30T03:25:00;3.20;99.90
10143;DHT22;5112;54.088;13.446;2024-01-30T03:35:02;3.30;99.90
10143;DHT22;5112;54.088;13.446;2024-01-30T03:45:07;3.20;99.90
10143;DHT22;5112;54.088;13.446;2024-01-30T03:55:08;3.20;99.90
10143;DHT22;5112;54.088;13.446;2024-01-30T04:05:11;3.30;99.90
10143;DHT22;5112;54.088;13.446;2024-01-30T04:15:13;3.30;99.90
10143;DHT22;5112;54.088;13.446;2024-01-30T04:25:17;3.50;99.90
10143;DHT22;5112;54.088;13.446;2024-01-30T04:35:19;3.80;99.90
10143;DHT22;5112;54.088;13.446;2024-01-30T04:45:25;4.00;99.90
10143;DHT22;5112;54.088;13.446;2024-01-30T04:55:26;4.00;99.90
10143;DHT22;5112;54.088;13.446;2024-01-30T05:05:29;4.00;99.90
10143;DHT22;5112;54.088;13.446;2024-01-30T05:15:31;3.90;99.90
10143;DHT22;5112;54.088;13.446;2024-01-30T05:25:34;3.80;99.90
10143;DHT22;5112;54.088;13.446;2024-01-30T05:35:35;3.50;99.90
10143;DHT22;5112;54.088;13.446;2024-01-30T05:45:38;3.40;99.90
10143;DHT22;5112;54.088;13.446;2024-01-30T05:55:40;3.20;99.90
10143;DHT22;5112;54.088;13.446;2024-01-30T06:05:43;3.10;99.90
10143;DHT22;5112;54.088;13.446;2024-01-30T06:15:44;3.30;99.90
10143;DHT22;5112;54.088;13.446;2024-01-30T06:25:47;3.10;99.90
10143;DHT22;5112;54.088;13.446;2024-01-30T06:35:49;3.10;99.90
10143;DHT22;5112;54.088;13.446;2024-01-30T06:45:52;3.20;99.90
10143;DHT22;5112;54.088;13.446;2024-01-30T06:55:53;3.10;99.90
10143;DHT22;5112;54.088;13.446;2024-01-30T07:05:56;3.10;99.90
10143;DHT22;5112;54.088;13.446;2024-01-30T07:15:58;3.10;99.90
10143;DHT22;5112;54.088;13.446;2024-01-30T07:26:01;3.10;99.90
10143;DHT22;5112;54.088;13.446;2024-01-30T07:36:03;3.10;99.90
10143;DHT22;5112;54.088;13.446;2024-01-30T07:46:06;3.20;99.90
10143;DHT22;5112;54.088;13.446;2024-01-30T07:56:07;3.30;99.90
10143;DHT22;5112;54.088;13.446;2024-01-30T08:06:10;3.30;99.90
10143;DHT22;5112;54.088;13.446;2024-01-30T08:16:12;3.30;99.90
10143;DHT22;5112;54.088;13.446;2024-01-30T08:26:15;3.30;99.90
10143;DHT22;5112;54.088;13.446;2024-01-30T08:36:17;3.30;99.90
10143;DHT22;5112;54.088;13.446;2024-01-30T08:46:20;3.40;99.90
10143;DHT22;5112;54.088;13.446;2024-01-30T08:56:22;3.60;99.90
10143;DHT22;5112;54.088;13.446;2024-01-30T09:06:25;3.80;99.90
10143;DHT22;5112;54.088;13.446;2024-01-30T09:16:28;3.80;99.90
10143;DHT22;5112;54.088;13.446;2024-01-30T09:26:31;3.90;99.90
10143;DHT22;5112;54.088;13.446;2024-01-30T09:36:33;4.10;99.90
10143;DHT22;5112;54.088;13.446;2024-01-30T09:46:36;4.20;99.90
10143;DHT22;5112;54.088;13.446;2024-01-30T09:56:38;4.50;99.90
10143;DHT22;5112;54.088;13.446;2024-01-30T10:06:41;5.10;99.90
10143;DHT22;5112;54.088;13.446;2024-01-30T10:16:45;5.50;99.90
10143;DHT22;5112;54.088;13.446;2024-01-30T10:26:48;5.80;99.90
10143;DHT22;5112;54.088;13.446;2024-01-30T10:36:50;5.80;99.90
10143;DHT22;5112;54.088;13.446;2024-01-30T10:47:00;5.90;99.90
10143;DHT22;5112;54.088;13.446;2024-01-30T10:57:05;5.90;99.90
10143;DHT22;5112;54.088;13.446;2024-01-30T11:07:18;6.00;99.90
10143;DHT22;5112;54.088;13.446;2024-01-30T11:17:21;6.10;99.90
10143;DHT22;5112;54.088;13.446;2024-01-30T11:27:24;6.30;99.90
10143;DHT22;5112;54.088;13.446;2024-01-30T11:37:28;6.60;99.90
10143;DHT22;5112;54.088;13.446;2024-01-30T11:47:35;6.90;99.90
10143;DHT22;5112;54.088;13.446;2024-01-30T11:57:36;7.20;99.90
10143;DHT22;5112;54.088;13.446;2024-01-30T12:07:44;7.70;99.90
10143;DHT22;5112;54.088;13.446;2024-01-30T12:17:46;7.90;99.90
10143;DHT22;5112;54.088;13.446;2024-01-30T12:27:49;8.00;99.90
10143;DHT22;5112;54.088;13.446;2024-01-30T12:37:52;8.20;99.90
10143;DHT22;5112;54.088;13.446;2024-01-30T12:47:54;8.10;99.90
10143;DHT22;5112;54.088;13.446;2024-01-30T12:57:56;7.90;99.90
10143;DHT22;5112;54.088;13.446;2024-01-30T13:07:59;7.60;99.90
10143;DHT22;5112;54.088;13.446;2024-01-30T13:18:00;7.70;99.90
10143;DHT22;5112;54.088;13.446;2024-01-30T13:28:04;7.80;99.90
10143;DHT22;5112;54.088;13.446;2024-01-30T13:38:06;7.80;99.90
10143;DHT22;5112;54.088;13.446;2024-01-30T13:48:09;7.70;99.90
10143;DHT22;5112;54.088;13.446;2024-01-30T13:58:10;7.70;99.90
10143;DHT22;5112;54.088;13.446;2024-01-30T14:08:13;7.70;99.90
10143;DHT22;5112;54.088;13.446;2024-01-30T14:18:15;7.80;99.90
10143;DHT22;5112;54.088;13.446;2024-01-30T14:28:18;7.80;99.90
10143;DHT22;5112;54.088;13.446;2024-01-30T14:38:19;7.60;99.90
10143;DHT22;5112;54.088;13.446;2024-01-30T14:48:22;7.70;99.90
10143;DHT22;5112;54.088;13.446;2024-01-30T14:58:24;7.70;99.90
10143;DHT22;5112;54.088;13.446;2024-01-30T15:08:27;7.40;99.90
10143;DHT22;5112;54.088;13.446;2024-01-30T15:18:29;7.50;99.90
10143;DHT22;5112;54.088;13.446;2024-01-30T15:28:38;7.50;99.90
10143;DHT22;5112;54.088;13.446;2024-01-30T15:38:40;7.30;99.90
10143;DHT22;5112;54.088;13.446;2024-01-30T15:48:43;7.30;99.90
10143;DHT22;5112;54.088;13.446;2024-01-30T15:58:45;7.30;99.90
10143;DHT22;5112;54.088;13.446;2024-01-30T16:08:51;7.20;99.90
10143;DHT22;5112;54.088;13.446;2024-01-30T16:18:52;7.20;99.90
10143;DHT22;5112;54.088;13.446;2024-01-30T16:28:55;7.20;99.90
10143;DHT22;5112;54.088;13.446;2024-01-30T16:38:57;7.20;99.90
10143;DHT22;5112;54.088;13.446;2024-01-30T16:49:00;7.20;99.90
10143;DHT22;5112;54.088;13.446;2024-01-30T16:59:02;7.30;99.90
10143;DHT22;5112;54.088;13.446;2024-01-30T17:09:04;7.20;99.90
10143;DHT22;5112;54.088;13.446;2024-01-30T17:19:07;7.10;99.90
10143;DHT22;5112;54.088;13.446;2024-01-30T17:29:10;7.10;99.90
10143;DHT22;5112;54.088;13.446;2024-01-30T17:39:14;7.00;99.90
10143;DHT22;5112;54.088;13.446;2024-01-30T17:49:17;6.90;99.90
10143;DHT22;5112;54.088;13.446;2024-01-30T17:59:19;7.00;99.90
10143;DHT22;5112;54.088;13.446;2024-01-30T18:09:23;7.10;99.90
10143;DHT22;5112;54.088;13.446;2024-01-30T18:19:25;7.30;99.90
10143;DHT22;5112;54.088;13.446;2024-01-30T18:29:28;7.30;99.90
10143;DHT22;5112;54.088;13.446;2024-01-30T18:39:30;7.40;99.90
10143;DHT22;5112;54.088;13.446;2024-01-30T18:49:33;7.50;99.90
10143;DHT22;5112;54.088;13.446;2024-01-30T18:59:34;7.80;99.90
10143;DHT22;5112;54.088;13.446;2024-01-30T19:09:37;7.80;99.90
10143;DHT22;5112;54.088;13.446;2024-01-30T19:19:39;7.90;99.90
10143;DHT22;5112;54.088;13.446;2024-01-30T19:29:42;8.00;99.90
10143;DHT22;5112;54.088;13.446;2024-01-30T19:39:43;8.00;99.90
10143;DHT22;5112;54.088;13.446;2024-01-30T19:49:46;8.20;99.90
10143;DHT22;5112;54.088;13.446;2024-01-30T19:59:48;8.20;99.90
10143;DHT22;5112;54.088;13.446;2024-01-30T20:09:52;8.20;99.90
10143;DHT22;5112;54.088;13.446;2024-01-30T20:19:54;8.10;99.90
10143;DHT22;5112;54.088;13.446;2024-01-30T20:29:57;8.00;99.90
10143;DHT22;5112;54.088;13.446;2024-01-30T20:40:08;7.90;99.90
10143;DHT22;5112;54.088;13.446;2024-01-30T20:50:09;7.70;99.90
10143;DHT22;5112;54.088;13.446;2024-01-30T21:00:14;7.80;99.90
10143;DHT22;5112;54.088;13.446;2024-01-30T21:10:17;7.80;99.90
10143;DHT22;5112;54.088;13.446;2024-01-30T21:20:19;7.90;99.90
10143;DHT22;5112;54.088;13.446;2024-01-30T21:30:21;8.00;99.90
10143;DHT22;5112;54.088;13.446;2024-01-30T21:40:24;8.10;99.90
10143;DHT22;5112;54.088;13.446;2024-01-30T21:50:26;8.10;99.90
10143;DHT22;5112;54.088;13.446;2024-01-30T22:00:29;8.20;99.90
10143;DHT22;5112;54.088;13.446;2024-01-30T22:10:30;8.30;99.90
10143;DHT22;5112;54.088;13.446;2024-01-30T22:20:33;8.40;99.90
10143;DHT22;5112;54.088;13.446;2024-01-30T22:30:35;8.60;99.90
10143;DHT22;5112;54.088;13.446;2024-01-30T22:40:38;8.60;99.90
10143;DHT22;5112;54.088;13.446;2024-01-30T22:50:40;8.50;99.90
10143;DHT22;5112;54.088;13.446;2024-01-30T23:00:43;8.40;99.90
10143;DHT22;5112;54.088;13.446;2024-01-30T23:10:44;8.40;99.90
10143;DHT22;5112;54.088;13.446;2024-01-30T23:20:47;8.40;99.90
10143;DHT22;5112;54.088;13.446;2024-01-30T23:30:49;8.60;99.90
10143;DHT22;5112;54.088;13.446;2024-01-30T23:40:52;8.70;99.90
10143;DHT22;5112;54.088;13.446;2024-01-30T23:50:53;8.90;99.90
